Aérodrome :
LOGIN :

S'inscrire | Disclaimer

   EN    FR    IT 

 










Légende :    VFR   VFR Marginal   IFR   IFR Intensif   IFR Très Intensif
Visi : 
Plafond : 
>= 8 km
>= 3000ft
5 à 8 km
1000 à 3000 ft
1500m à 5 km
500 à 1000 ft
800 à 1500m
200 à 500 ft
< 800m
< 200 ft
Symboles :   Orages  Brouillard  Fortes neiges  Fortes précipitations  Vent > 20 kt
SIGMETs :   Divers  Orages  Givrage  Turbulence  Onde Orograph.  Cendres Volcan.






- Altitude de l'aérodrome : 195 ft


LFMY - Salon de Provence

DERNIER METAR :
  • 201130Z AUTO VRB02KT CAVOK 15/02 Q1025 NOSIG

METARs EXPIRÉS :
  • 201100Z AUTO VRB02KT CAVOK 14/01 Q1025 NOSIG
  • 201030Z AUTO VRB03KT CAVOK 13/02 Q1025 NOSIG
  • 201000Z AUTO VRB01KT CAVOK 13/01 Q1025 NOSIG
  • 200930Z AUTO VRB02KT CAVOK 11/02 Q1025 NOSIG
  • 200900Z AUTO VRB01KT CAVOK 09/02 Q1025 NOSIG
  • 200830Z AUTO VRB02KT CAVOK 07/02 Q1025 NOSIG

TAF TAF LFMY
Valide du 20 à 09h jusqu'au 21 à 09h UTC


200800Z 2009/2109 VRB02KT CAVOK
FM201000 30005KT CAVOK
FM201800 VRB02KT CAVOK
BECMG 2100/2103 33010G20KT
BECMG 2106/2109 34020G33KT



MET'MAP, la Météo Aéronautique d'un coup d'oeil ! - Copyright ORBIFLY Décembre 2007 - Disclaimer

ORBIFLY MET'MAP TEAM :

Programmation & Développement : Alexandra Zaïnal
Sur une idée originale de : Baudouin d'Aumeries
Assistance à la programmation : Marc-Olivier Méhu
Soutien technique & logistique : Manuel Goepfert

Contact : metmap@orbifly.com




SOURCES & CREDITS :

   NOAA